Time;durP1;ratioP1;P1;durP2;ratioP2;P2;SDS_P1;SDS_P2;PMS_P1;PMS_P2;Temp;Humidity;BMP_temperature;BMP_pressure;BME280_temperature;BME280_humidity;BME280_pressure;Samples;Min_cycle;Max_cycle;Signal;HPM_P1;HPM_P2
2022/06/06 00:01:57;;;;;;;75.63;38.45;;;;;;;13.39;100.00;101214.44;4988374;28;20008;-93
2022/06/06 00:04:23;;;;;;;79.30;39.40;;;;;;;13.39;100.00;101211.78;4983702;28;20022;-94
2022/06/06 00:06:51;;;;;;;88.40;41.28;;;;;;;13.39;100.00;101206.44;4989454;28;20018;-92
2022/06/06 00:09:17;;;;;;;87.00;43.65;;;;;;;13.41;100.00;101209.88;4989395;28;20033;-94
2022/06/06 00:11:43;;;;;;;88.63;42.42;;;;;;;13.42;100.00;101212.47;4990386;28;20026;-93
2022/06/06 00:14:11;;;;;;;88.07;44.03;;;;;;;13.43;100.00;101208.84;4988640;28;20113;-93
2022/06/06 00:16:37;;;;;;;79.97;42.35;;;;;;;13.44;100.00;101212.38;4989348;28;20132;-93
2022/06/06 00:19:03;;;;;;;90.03;42.67;;;;;;;13.40;100.00;101203.66;4988484;28;20548;-92
2022/06/06 00:21:30;;;;;;;82.45;40.83;;;;;;;13.40;100.00;101192.09;4987955;28;20022;-92
2022/06/06 00:23:59;;;;;;;80.20;41.47;;;;;;;13.43;100.00;101205.31;4988521;28;20476;-94
2022/06/06 00:26:26;;;;;;;84.68;40.40;;;;;;;13.42;100.00;101201.78;4988217;28;20101;-94
2022/06/06 00:28:51;;;;;;;83.50;39.65;;;;;;;13.39;100.00;101198.41;4988371;28;20101;-93
2022/06/06 00:36:45;;;;;;;81.00;41.70;;;;;;;13.39;100.00;101193.06;4988233;28;20054;-92
2022/06/06 00:39:12;;;;;;;82.95;39.70;;;;;;;13.37;100.00;101185.13;4994556;28;20038;-93
2022/06/06 00:41:44;;;;;;;83.68;39.97;;;;;;;13.38;100.00;101183.31;4988352;28;20034;-92
2022/06/06 00:44:13;;;;;;;81.63;38.45;;;;;;;13.42;100.00;101185.75;4989443;28;20033;-91
2022/06/06 00:46:47;;;;;;;78.07;38.90;;;;;;;13.42;100.00;101180.38;4981753;28;20023;-92
2022/06/06 00:49:16;;;;;;;76.03;38.80;;;;;;;13.42;100.00;101191.09;4987115;28;20034;-94
2022/06/06 00:51:42;;;;;;;74.80;39.00;;;;;;;13.41;100.00;101184.00;4989558;28;20395;-95
2022/06/06 00:54:07;;;;;;;77.85;36.65;;;;;;;13.42;100.00;101184.88;4992925;28;20101;-93
2022/06/06 00:56:42;;;;;;;80.70;39.97;;;;;;;13.43;100.00;101191.94;4986381;28;20113;-93
2022/06/06 00:59:15;;;;;;;85.93;40.20;;;;;;;13.42;100.00;101183.06;4986375;28;20496;-93
2022/06/06 01:01:41;;;;;;;82.57;40.70;;;;;;;13.41;100.00;101186.66;4987504;28;20042;-92
2022/06/06 01:04:11;;;;;;;82.25;42.00;;;;;;;13.39;100.00;101196.59;4988082;28;20026;-93
2022/06/06 01:06:41;;;;;;;84.32;40.95;;;;;;;13.38;100.00;101188.69;4983957;28;20034;-91
2022/06/06 01:09:07;;;;;;;85.90;41.50;;;;;;;13.36;100.00;101182.53;4988524;28;20030;-94
2022/06/06 01:11:44;;;;;;;87.78;42.40;;;;;;;13.39;100.00;101191.25;4986604;28;20053;-93
2022/06/06 01:14:12;;;;;;;82.90;42.65;;;;;;;13.43;100.00;101190.13;4977288;28;20538;-94
2022/06/06 01:16:42;;;;;;;84.95;43.35;;;;;;;13.42;100.00;101190.22;4985597;28;20042;-92
2022/06/06 01:19:39;;;;;;;84.93;41.38;;;;;;;13.42;100.00;101188.41;4987098;28;20275;-91
2022/06/06 01:22:32;;;;;;;87.45;43.55;;;;;;;13.41;100.00;101184.00;4931886;28;20034;-91
2022/06/06 01:25:16;;;;;;;89.83;43.23;;;;;;;13.42;100.00;101200.91;4985177;28;20033;-93
2022/06/06 01:27:59;;;;;;;90.55;42.40;;;;;;;13.43;100.00;101195.47;4987308;28;20081;-93
2022/06/06 01:30:31;;;;;;;90.60;43.67;;;;;;;13.40;100.00;101192.97;4986659;28;20034;-93
2022/06/06 01:33:01;;;;;;;115.00;56.42;;;;;;;13.46;100.00;101197.13;4989529;28;20077;-92
2022/06/06 01:35:36;;;;;;;87.72;44.08;;;;;;;13.42;100.00;101183.06;4969757;28;20018;-92
2022/06/06 01:38:03;;;;;;;85.65;44.33;;;;;;;13.48;100.00;101199.69;4988076;28;20034;-93
2022/06/06 01:40:44;;;;;;;88.85;42.92;;;;;;;13.48;100.00;101195.22;4988836;28;20050;-92
2022/06/06 01:43:26;;;;;;;88.90;42.47;;;;;;;13.50;100.00;101197.78;4987630;28;20038;-91
2022/06/06 01:46:33;;;;;;;86.63;41.85;;;;;;;13.49;100.00;101191.56;4990826;28;20938;-92
2022/06/06 01:48:59;;;;;;;82.20;39.38;;;;;;;13.48;100.00;101189.84;4977705;28;20038;-94
2022/06/06 01:51:30;;;;;;;85.75;40.03;;;;;;;13.50;100.00;101192.44;4973124;28;20030;-92
2022/06/06 01:53:56;;;;;;;79.50;39.78;;;;;;;13.48;100.00;101184.50;4993408;28;20066;-92
2022/06/06 01:56:25;;;;;;;74.93;38.17;;;;;;;13.54;100.00;101188.63;4990193;28;20042;-94
2022/06/06 01:58:51;;;;;;;73.65;37.88;;;;;;;13.50;100.00;101176.38;4990295;28;20062;-93
2022/06/06 02:01:16;;;;;;;67.22;34.90;;;;;;;13.52;100.00;101180.72;4995123;28;20049;-93
2022/06/06 02:03:43;;;;;;;69.85;34.58;;;;;;;13.52;100.00;101174.50;4990390;28;20030;-93
2022/06/06 02:06:08;;;;;;;66.50;35.40;;;;;;;13.56;100.00;101176.06;4987620;28;20022;-91
2022/06/06 02:08:34;;;;;;;60.47;32.30;;;;;;;13.54;100.00;101162.75;4990976;28;20041;-93
2022/06/06 02:10:59;;;;;;;66.00;33.20;;;;;;;13.55;100.00;101163.63;4991524;28;20037;-91
2022/06/06 02:13:25;;;;;;;56.50;30.33;;;;;;;13.60;100.00;101164.22;4991347;28;20506;-93
2022/06/06 02:15:51;;;;;;;57.67;29.52;;;;;;;13.59;100.00;101163.38;4989488;28;20030;-93
2022/06/06 02:18:17;;;;;;;49.83;26.67;;;;;;;13.60;100.00;101150.84;4989568;28;20054;-94
2022/06/06 02:20:43;;;;;;;56.50;26.70;;;;;;;13.55;100.00;101158.28;4986862;28;20053;-93
2022/06/06 02:23:08;;;;;;;58.70;28.67;;;;;;;13.56;100.00;101165.34;4991006;28;20039;-92
2022/06/06 02:25:35;;;;;;;52.20;27.25;;;;;;;13.56;100.00;101163.53;4989901;28;20053;-94
2022/06/06 02:28:02;;;;;;;53.78;26.95;;;;;;;13.61;100.00;101171.28;4990410;28;20018;-93
2022/06/06 02:30:30;;;;;;;50.05;26.35;;;;;;;13.61;100.00;101169.47;4988017;28;20034;-92
2022/06/06 02:32:56;;;;;;;49.05;25.35;;;;;;;13.63;100.00;101162.25;4990069;28;20035;-94
2022/06/06 02:35:25;;;;;;;51.22;26.58;;;;;;;13.63;100.00;101172.06;4975483;28;20034;-92
2022/06/06 02:37:52;;;;;;;47.03;24.80;;;;;;;13.58;100.00;101161.63;4998157;28;20030;-92
2022/06/06 02:40:19;;;;;;;51.58;25.23;;;;;;;13.57;100.00;101157.22;4993242;28;20088;-92
2022/06/06 02:42:45;;;;;;;49.92;26.23;;;;;;;13.58;100.00;101156.28;4992500;28;20026;-92
2022/06/06 02:45:12;;;;;;;53.42;27.50;;;;;;;13.51;100.00;101156.75;4993428;28;20077;-92
2022/06/06 02:47:38;;;;;;;55.85;27.38;;;;;;;13.59;100.00;101175.88;4972238;28;20054;-93
2022/06/06 02:50:06;;;;;;;52.92;27.13;;;;;;;13.56;100.00;101173.38;4988956;28;20057;-94
2022/06/06 02:52:31;;;;;;;56.50;26.25;;;;;;;13.53;100.00;101169.06;4986737;28;20519;-93
2022/06/06 02:54:56;;;;;;;57.10;28.75;;;;;;;13.52;100.00;101167.34;4989615;28;20054;-94
2022/06/06 02:57:22;;;;;;;54.72;27.48;;;;;;;13.52;100.00;101167.34;5008364;28;20070;-93
2022/06/06 02:59:50;;;;;;;57.38;27.63;;;;;;;13.51;100.00;101164.75;4988367;28;20048;-91
2022/06/06 03:02:16;;;;;;;52.80;26.98;;;;;;;13.48;100.00;101170.28;4989629;28;20118;-93
2022/06/06 03:04:41;;;;;;;53.70;26.85;;;;;;;13.45;100.00;101158.78;4987401;28;20113;-92
2022/06/06 03:07:34;;;;;;;56.95;28.40;;;;;;;13.48;100.00;101170.28;4973957;28;20054;-93
2022/06/06 03:10:27;;;;;;;49.45;25.75;;;;;;;13.51;100.00;101168.28;4941613;28;20050;-92
2022/06/06 03:13:08;;;;;;;51.80;26.75;;;;;;;13.47;100.00;101168.56;4981499;28;20030;-92
2022/06/06 03:15:33;;;;;;;45.78;24.80;;;;;;;13.47;100.00;101168.56;4971343;28;20472;-91
2022/06/06 03:21:05;;;;;;;48.00;25.40;;;;;;;13.44;100.00;101175.81;4983398;28;20046;-92
2022/06/06 03:23:46;;;;;;;48.53;24.77;;;;;;;13.44;100.00;101173.13;4983515;28;20030;-92
2022/06/06 03:26:54;;;;;;;47.30;24.55;;;;;;;13.42;100.00;101177.72;4992828;28;20046;-92
2022/06/06 03:29:45;;;;;;;46.67;24.95;;;;;;;13.42;100.00;101177.72;4974963;28;20039;-91
2022/06/06 03:32:10;;;;;;;50.70;24.95;;;;;;;13.40;100.00;101181.41;4980253;28;20046;-92
2022/06/06 03:34:42;;;;;;;42.95;23.52;;;;;;;13.40;100.00;101176.06;4988550;28;20823;-93
2022/06/06 03:37:23;;;;;;;40.38;23.10;;;;;;;13.37;100.00;101177.09;4989383;28;20038;-92
2022/06/06 03:39:58;;;;;;;45.95;22.65;;;;;;;13.32;100.00;101186.34;4988492;28;20031;-91
2022/06/06 03:42:26;;;;;;;36.67;22.55;;;;;;;13.23;100.00;101174.34;5000097;28;20080;-93
2022/06/06 03:45:26;;;;;;;37.13;21.95;;;;;;;13.16;100.00;101176.47;4977820;28;20030;-92
2022/06/06 03:48:12;;;;;;;40.95;22.98;;;;;;;13.11;100.00;101181.22;4984988;28;20045;-92
2022/06/06 03:51:04;;;;;;;38.63;21.38;;;;;;;13.11;100.00;101180.34;4989961;28;20149;-93
2022/06/06 03:53:56;;;;;;;37.40;21.67;;;;;;;13.12;100.00;101180.25;4979687;28;20057;-92
2022/06/06 03:56:40;;;;;;;37.38;20.70;;;;;;;13.12;100.00;101182.94;4987924;28;20038;-93
2022/06/06 03:59:07;;;;;;;33.47;19.65;;;;;;;13.18;100.00;101197.78;4984646;28;20500;-93
2022/06/06 04:01:35;;;;;;;36.13;20.35;;;;;;;13.15;100.00;101179.22;4987889;28;20041;-93
2022/06/06 04:04:01;;;;;;;36.35;19.13;;;;;;;13.07;100.00;101186.81;4978941;28;20087;-93
2022/06/06 04:06:28;;;;;;;35.78;18.88;;;;;;;12.96;100.00;101196.31;4988182;28;20034;-92
2022/06/06 04:08:54;;;;;;;32.05;18.02;;;;;;;12.88;100.00;101187.00;4989271;28;21270;-91
2022/06/06 04:11:43;;;;;;;30.70;17.92;;;;;;;12.84;100.00;101188.09;4990228;28;20034;-95
2022/06/06 04:14:34;;;;;;;31.27;19.23;;;;;;;12.69;100.00;101179.97;4977394;28;20106;-92
2022/06/06 04:17:21;;;;;;;32.85;19.08;;;;;;;12.69;100.00;101196.00;4987364;28;20038;-93
2022/06/06 04:20:11;;;;;;;30.40;18.35;;;;;;;12.69;100.00;101190.66;4986225;28;20026;-92
2022/06/06 04:22:50;;;;;;;30.88;17.42;;;;;;;12.64;100.00;101189.19;4989480;28;20069;-94
2022/06/06 04:25:32;;;;;;;30.77;18.77;;;;;;;12.61;100.00;101198.22;4986710;28;20034;-91
2022/06/06 04:28:53;;;;;;;29.35;17.30;;;;;;;12.60;100.00;101203.63;4984884;28;20580;-94
2022/06/06 04:31:34;;;;;;;31.40;16.55;;;;;;;12.56;100.00;101213.63;4939620;28;20113;-93
2022/06/06 04:34:18;;;;;;;32.13;17.83;;;;;;;12.55;100.00;101205.69;4985260;28;20050;-92
2022/06/06 04:36:55;;;;;;;31.63;16.67;;;;;;;12.59;100.00;101223.28;4986875;28;20042;-94
2022/06/06 04:39:35;;;;;;;31.25;16.98;;;;;;;12.68;100.00;101220.97;4989765;28;20026;-94
2022/06/06 04:42:03;;;;;;;29.40;16.42;;;;;;;12.78;100.00;101220.47;4989620;28;20030;-92
2022/06/06 04:44:37;;;;;;;26.23;16.13;;;;;;;12.82;100.00;101217.56;4987842;28;20030;-91
2022/06/06 04:47:13;;;;;;;25.45;16.30;;;;;;;12.88;100.00;101222.59;4989792;28;20034;-93
2022/06/06 04:49:39;;;;;;;28.98;15.63;;;;;;;12.92;100.00;101215.25;4989332;28;20053;-92
2022/06/06 04:52:05;;;;;;;23.95;15.02;;;;;;;12.91;100.00;101208.16;4992158;28;20089;-92
2022/06/06 04:54:32;;;;;;;25.35;14.02;;;;;;;12.96;100.00;101214.16;4991254;28;20027;-93
2022/06/06 04:57:00;;;;;;;22.08;13.65;;;;;;;12.96;100.00;101214.16;4995824;28;20022;-93
2022/06/06 04:59:28;;;;;;;23.60;13.23;;;;;;;12.99;100.00;101213.09;4979265;28;20053;-92
2022/06/06 05:01:55;;;;;;;22.30;13.73;;;;;;;12.96;100.00;101216.81;4993077;28;20049;-92
2022/06/06 05:04:20;;;;;;;21.10;13.00;;;;;;;12.93;99.07;101217.84;4987097;28;20435;-93
2022/06/06 05:07:01;;;;;;;20.27;12.65;;;;;;;12.93;100.00;101215.16;4987997;28;20019;-92
2022/06/06 05:09:41;;;;;;;20.65;13.20;;;;;;;12.99;99.59;101221.97;4989666;28;20101;-91
2022/06/06 05:12:29;;;;;;;22.85;13.35;;;;;;;13.05;99.02;101218.13;4990190;28;20041;-92
2022/06/06 05:15:29;;;;;;;19.50;12.50;;;;;;;13.08;99.00;101221.47;4982446;28;20062;-94
2022/06/06 05:18:08;;;;;;;24.23;12.55;;;;;;;13.12;98.22;101240.88;4975897;28;20030;-93
2022/06/06 05:20:48;;;;;;;21.98;12.90;;;;;;;13.13;97.34;101232.78;4985320;28;20030;-94
2022/06/06 05:23:28;;;;;;;20.23;12.40;;;;;;;13.09;97.45;101235.72;4989437;28;20038;-93
2022/06/06 05:26:13;;;;;;;21.38;12.27;;;;;;;13.14;96.58;101236.31;4984850;28;20917;-92
2022/06/06 05:29:04;;;;;;;19.67;12.30;;;;;;;13.19;96.60;101237.78;4989237;28;20027;-92
2022/06/06 05:31:47;;;;;;;16.85;12.50;;;;;;;13.28;96.54;101238.25;4986888;28;20117;-91
2022/06/06 05:34:19;;;;;;;20.67;13.68;;;;;;;13.37;93.70;101243.06;4989329;28;20032;-91
2022/06/06 05:37:14;;;;;;;18.45;13.93;;;;;;;13.37;93.49;101241.25;4989001;28;20045;-93
2022/06/06 05:40:05;;;;;;;21.50;15.65;;;;;;;13.41;93.92;101244.63;4989693;28;20106;-93
2022/06/06 05:43:05;;;;;;;20.67;15.13;;;;;;;13.40;93.61;101246.44;4990577;28;20496;-93
2022/06/06 05:45:49;;;;;;;18.83;14.32;;;;;;;13.44;92.55;101250.66;4973065;28;20986;-92
2022/06/06 05:48:28;;;;;;;20.52;15.45;;;;;;;13.48;91.50;101250.50;4992311;28;20042;-91
2022/06/06 05:51:05;;;;;;;20.25;15.73;;;;;;;13.53;92.13;101257.31;4990559;28;20031;-93
2022/06/06 05:53:45;;;;;;;18.20;14.38;;;;;;;13.51;89.62;101245.84;4957473;28;20081;-93
2022/06/06 05:56:22;;;;;;;21.20;16.63;;;;;;;13.59;91.21;101253.44;4987358;28;20042;-93
2022/06/06 05:59:26;;;;;;;20.13;16.40;;;;;;;13.75;89.98;101253.41;4984282;28;20042;-90
2022/06/06 06:02:16;;;;;;;20.55;15.80;;;;;;;13.75;89.76;101256.06;4939717;28;20071;-90
2022/06/06 06:05:07;;;;;;;17.63;14.75;;;;;;;13.81;87.17;101242.38;4989193;28;20042;-91
2022/06/06 06:07:59;;;;;;;17.05;14.00;;;;;;;13.91;87.60;101246.22;4983906;28;20058;-92
2022/06/06 06:10:37;;;;;;;19.55;13.23;;;;;;;13.85;87.76;101251.94;4986787;28;20023;-91
2022/06/06 06:13:11;;;;;;;12.25;10.63;;;;;;;13.92;86.99;101256.84;4986367;28;20062;-90
2022/06/06 06:15:39;;;;;;;18.00;11.52;;;;;;;13.98;87.81;101250.25;4986320;28;20035;-92
2022/06/06 06:18:10;;;;;;;14.15;9.70;;;;;;;13.96;87.45;101257.50;4988838;28;20039;-92
2022/06/06 06:20:41;;;;;;;12.63;7.30;;;;;;;13.95;84.81;101259.31;4983270;28;20037;-92
2022/06/06 06:23:11;;;;;;;10.82;7.72;;;;;;;14.02;86.25;101267.00;4981695;28;20113;-91
2022/06/06 06:25:40;;;;;;;10.00;7.18;;;;;;;14.18;85.63;101265.16;4985287;28;20034;-91
2022/06/06 06:28:10;;;;;;;6.95;6.13;;;;;;;14.36;83.63;101277.44;4988945;28;20089;-89
2022/06/06 06:30:56;;;;;;;10.07;6.55;;;;;;;14.46;84.17;101272.38;4990589;28;20525;-90
2022/06/06 06:33:30;;;;;;;12.02;6.50;;;;;;;14.74;83.72;101279.66;4988575;28;20061;-89
2022/06/06 06:36:05;;;;;;;10.15;6.07;;;;;;;14.79;82.00;101266.81;4987477;28;20029;-93
2022/06/06 06:38:46;;;;;;;9.02;5.88;;;;;;;14.92;82.05;101257.09;4990993;28;20058;-91
2022/06/06 06:41:33;;;;;;;10.10;6.28;;;;;;;15.08;81.50;101272.19;4994688;28;20065;-93
2022/06/06 06:44:09;;;;;;;12.60;6.20;;;;;;;15.25;80.03;101279.16;4998509;28;20061;-93
2022/06/06 06:46:42;;;;;;;8.73;5.90;;;;;;;15.59;79.37;101269.81;4988298;28;20039;-94
2022/06/06 06:49:19;;;;;;;8.50;5.27;;;;;;;15.67;76.75;101265.72;4992156;28;20026;-94
2022/06/06 06:52:01;;;;;;;7.20;5.13;;;;;;;15.92;77.07;101281.03;4989201;28;20511;-93
2022/06/06 06:54:41;;;;;;;7.78;5.38;;;;;;;16.30;75.54;101288.38;4993670;28;20337;-94
2022/06/06 06:57:28;;;;;;;8.80;5.53;;;;;;;16.27;76.74;101285.03;4994842;28;20093;-92
2022/06/06 06:59:59;;;;;;;7.72;5.07;;;;;;;16.33;72.86;101290.84;4994243;28;20030;-95
2022/06/06 07:08:50;;;;;;;6.20;3.55;;;;;;;15.42;73.79;101287.88;4994567;28;20033;-93
2022/06/06 07:11:33;;;;;;;5.45;3.67;;;;;;;15.52;73.58;101287.28;4990258;28;20034;-94
2022/06/06 07:14:17;;;;;;;7.50;3.58;;;;;;;15.74;74.27;101290.31;4989605;28;20047;-91
2022/06/06 07:16:44;;;;;;;6.50;2.70;;;;;;;15.84;68.08;101277.16;4999113;28;20026;-93
2022/06/06 07:19:16;;;;;;;3.08;2.33;;;;;;;15.86;70.19;101277.91;4994651;28;20030;-94
2022/06/06 07:21:43;;;;;;;4.15;3.00;;;;;;;16.10;67.48;101278.97;5001053;28;20034;-94
2022/06/06 07:24:14;;;;;;;5.13;2.40;;;;;;;16.14;70.04;101282.31;4990381;28;20037;-94
2022/06/06 07:26:42;;;;;;;3.10;2.40;;;;;;;16.35;67.33;101280.88;4992441;28;20030;-94
2022/06/06 07:29:13;;;;;;;5.97;2.60;;;;;;;16.76;68.51;101287.94;5003018;28;20021;-92
2022/06/06 07:32:01;;;;;;;5.28;2.60;;;;;;;17.25;66.39;101279.06;4993700;28;20042;-95
2022/06/06 07:34:48;;;;;;;5.32;2.30;;;;;;;17.63;67.92;101302.31;4998328;28;20034;-94
2022/06/06 07:37:40;;;;;;;3.22;2.00;;;;;;;18.30;64.99;101302.72;4998142;28;20039;-93
2022/06/06 07:40:34;;;;;;;3.13;2.15;;;;;;;18.08;63.66;101298.09;4995238;28;20034;-95
2022/06/06 07:43:05;;;;;;;2.63;2.17;;;;;;;18.01;62.62;101298.66;4992885;28;20022;-94
2022/06/06 07:45:41;;;;;;;2.55;2.10;;;;;;;18.58;61.85;101298.78;4992875;28;20038;-95
2022/06/06 07:48:29;;;;;;;2.70;1.92;;;;;;;19.26;63.05;101297.03;4986164;28;20026;-94
2022/06/06 07:51:12;;;;;;;4.15;1.95;;;;;;;19.47;57.09;101294.44;4991087;28;20034;-94
2022/06/06 07:54:17;;;;;;;4.40;2.15;;;;;;;18.89;60.05;101297.28;4994874;28;20061;-94
2022/06/06 07:56:51;;;;;;;4.72;2.22;;;;;;;18.54;58.33;101304.53;4947697;28;20700;-89
2022/06/06 07:59:45;;;;;;;3.28;1.75;;;;;;;18.96;61.62;101303.03;4991863;28;20027;-88
2022/06/06 08:02:26;;;;;;;4.63;1.83;;;;;;;19.98;56.68;101293.91;4989795;28;20031;-88
2022/06/06 08:05:42;;;;;;;4.95;1.90;;;;;;;20.80;59.34;101294.13;4989011;28;20034;-89
2022/06/06 08:08:25;;;;;;;2.45;1.67;;;;;;;20.69;52.86;101294.16;4905494;29;20048;-88
2022/06/06 08:10:50;;;;;;;2.13;1.40;;;;;;;19.75;51.77;101290.38;4907660;29;20040;-95
2022/06/06 08:13:44;;;;;;;3.70;1.40;;;;;;;19.09;55.60;101292.13;4914518;29;20050;-93
2022/06/06 08:16:18;;;;;;;1.83;1.38;;;;;;;18.81;55.62;101299.72;4911575;29;20040;-95
2022/06/06 08:19:07;;;;;;;1.90;1.70;;;;;;;18.98;57.13;101292.13;4911155;29;20036;-89
2022/06/06 08:21:43;;;;;;;2.20;1.30;;;;;;;19.86;55.32;101284.97;4920060;29;20082;-87
2022/06/06 08:24:23;;;;;;;2.25;1.30;;;;;;;20.08;52.51;101281.31;4913192;29;20044;-89
2022/06/06 08:26:51;;;;;;;1.77;1.20;;;;;;;19.87;51.69;101289.38;4906970;29;20032;-89
2022/06/06 08:29:17;;;;;;;2.13;1.25;;;;;;;19.92;52.05;101296.25;4908400;29;20141;-91
2022/06/06 08:31:42;;;;;;;2.60;1.60;;;;;;;19.58;52.42;101285.47;4902322;29;20040;-91
2022/06/06 08:34:08;;;;;;;3.08;1.70;;;;;;;19.29;51.86;101293.25;4909787;29;20043;-89
2022/06/06 08:36:45;;;;;;;1.50;1.13;;;;;;;19.41;53.74;101290.41;4907990;29;20423;-90
2022/06/06 08:39:47;;;;;;;2.00;1.30;;;;;;;19.09;54.20;101284.91;4907336;29;20044;-89
2022/06/06 08:42:54;;;;;;;5.43;1.58;;;;;;;18.47;55.28;101300.56;4905787;29;20042;-90
2022/06/06 08:45:25;;;;;;;3.05;1.25;;;;;;;17.95;57.15;101293.75;4957665;28;20045;-95
2022/06/06 08:48:02;;;;;;;2.63;1.30;;;;;;;17.56;57.77;101293.88;4971502;28;20034;-95
2022/06/06 08:50:53;;;;;;;4.10;1.40;;;;;;;17.24;60.14;101279.19;4974349;28;20488;-94
2022/06/06 08:53:43;;;;;;;1.70;1.50;;;;;;;16.76;60.49;101287.94;4950481;28;20054;-93
2022/06/06 08:56:28;;;;;;;1.83;1.40;;;;;;;16.50;60.68;101272.72;4976004;28;20039;-93
2022/06/06 08:59:14;;;;;;;6.22;1.52;;;;;;;16.65;62.89;101279.72;4970594;28;20058;-91
2022/06/06 09:01:54;;;;;;;2.55;1.30;;;;;;;16.80;63.55;101288.56;4935348;28;20146;-92
2022/06/06 09:04:57;;;;;;;3.35;1.40;;;;;;;17.10;62.85;101280.19;4965695;28;20114;-92
2022/06/06 09:07:43;;;;;;;2.88;1.50;;;;;;;18.18;59.86;101284.78;4960983;28;20100;-93
2022/06/06 09:10:46;;;;;;;2.17;1.48;;;;;;;19.35;57.02;101276.53;4965270;28;20046;-93
2022/06/06 09:13:32;;;;;;;3.00;1.30;;;;;;;20.35;54.25;101278.09;4968515;28;20046;-94
2022/06/06 09:16:22;;;;;;;2.50;1.20;;;;;;;21.03;52.17;101278.59;4961461;28;20062;-94
2022/06/06 09:19:22;;;;;;;2.17;1.40;;;;;;;21.53;50.00;101275.97;4968618;28;20077;-94
2022/06/06 09:22:03;;;;;;;3.03;1.38;;;;;;;22.56;47.61;101290.88;4976773;28;20056;-93
2022/06/06 09:25:02;;;;;;;1.75;1.20;;;;;;;23.70;46.22;101278.06;4990253;28;20041;-94
2022/06/06 09:27:46;;;;;;;3.35;1.40;;;;;;;24.44;42.96;101260.63;4985125;28;20026;-93
2022/06/06 09:30:28;;;;;;;4.47;1.35;;;;;;;24.20;42.64;101266.66;4989906;28;20399;-93
2022/06/06 09:33:02;;;;;;;5.78;1.42;;;;;;;23.60;43.71;101262.63;5008387;28;20515;-93
2022/06/06 09:35:53;;;;;;;2.72;1.88;;;;;;;24.41;42.86;101267.22;5003422;28;20419;-94
2022/06/06 09:38:52;;;;;;;1.48;1.20;;;;;;;23.96;44.20;101267.31;4989297;28;20033;-91
2022/06/06 09:41:40;;;;;;;3.85;1.35;;;;;;;22.61;43.55;101266.88;4989167;28;20049;-92
2022/06/06 09:44:15;;;;;;;3.25;1.13;;;;;;;22.22;46.14;101266.06;4988154;28;20109;-94
2022/06/06 09:47:11;;;;;;;1.98;1.17;;;;;;;22.96;45.69;101251.81;4982716;28;20033;-94
2022/06/06 09:49:45;;;;;;;2.90;1.25;;;;;;;23.68;44.12;101259.19;4970523;28;20514;-94
2022/06/06 09:52:16;;;;;;;3.65;1.27;;;;;;;24.00;40.78;101253.25;4984288;28;20439;-94
2022/06/06 09:59:01;;;;;;;2.17;1.23;;;;;;;23.56;43.34;101254.94;4985732;28;20041;-93
2022/06/06 10:01:50;;;;;;;3.83;1.45;;;;;;;25.44;40.01;101254.56;4988285;28;20034;-90
2022/06/06 10:04:41;;;;;;;4.13;1.30;;;;;;;26.75;36.94;101247.41;4988753;28;20030;-90
2022/06/06 10:07:25;;;;;;;2.80;1.15;;;;;;;28.05;33.84;101240.50;4978024;28;20088;-90
2022/06/06 10:10:00;;;;;;;3.53;1.27;;;;;;;29.11;34.62;101243.28;4983383;28;20040;-89
2022/06/06 10:12:32;;;;;;;2.53;1.50;;;;;;;29.22;32.89;101232.72;4994133;28;20030;-90
2022/06/06 10:15:08;;;;;;;3.22;1.10;;;;;;;28.66;31.77;101232.28;4992933;28;20046;-95
2022/06/06 10:17:58;;;;;;;3.70;1.20;;;;;;;28.02;33.21;101231.81;4989242;28;20027;-91
2022/06/06 10:20:32;;;;;;;4.40;1.60;;;;;;;27.10;32.18;101233.50;4984390;28;20030;-91
2022/06/06 10:23:30;;;;;;;2.97;1.20;;;;;;;27.25;33.85;101237.19;4992428;28;20030;-92
2022/06/06 10:26:04;;;;;;;2.80;1.27;;;;;;;26.05;35.39;101236.16;4992876;28;20022;-91
2022/06/06 10:28:38;;;;;;;3.63;1.13;;;;;;;24.26;35.80;101220.66;4991951;28;20026;-90
2022/06/06 10:31:14;;;;;;;2.35;1.10;;;;;;;23.94;40.56;101228.53;4990875;28;20038;-90
2022/06/06 10:34:10;;;;;;;2.65;1.10;;;;;;;24.24;38.89;101230.84;4992128;28;20022;-91
2022/06/06 10:36:48;;;;;;;1.42;0.93;;;;;;;23.75;39.89;101224.97;4992359;28;20038;-91
2022/06/06 10:39:57;;;;;;;2.95;1.40;;;;;;;23.85;39.07;101219.44;4992770;28;20392;-90
2022/06/06 10:42:34;;;;;;;4.68;1.35;;;;;;;22.40;40.10;101230.94;4972958;28;20097;-90
2022/06/06 10:45:37;;;;;;;2.70;1.38;;;;;;;20.82;46.09;101254.28;4982344;28;20511;-91
2022/06/06 10:48:15;;;;;;;6.03;1.90;;;;;;;18.84;58.52;101264.41;4918418;29;20308;-92
2022/06/06 10:54:14;;;;;;;4.18;1.88;;;;;;;18.26;69.21;101262.66;4912953;29;20151;-93
2022/06/06 10:57:16;;;;;;;4.60;1.80;;;;;;;20.78;58.07;101236.59;4913358;29;20059;-91
2022/06/06 11:00:05;;;;;;;1.55;1.45;;;;;;;22.66;53.43;101242.00;4915649;29;20032;-93
2022/06/06 11:02:36;;;;;;;2.15;1.50;;;;;;;23.67;50.21;101238.47;4911367;29;20050;-89
2022/06/06 11:05:25;;;;;;;4.35;2.45;;;;;;;25.21;47.65;101232.53;4913708;29;20390;-91
2022/06/06 11:08:08;;;;;;;2.58;1.48;;;;;;;25.66;44.26;101231.28;4919815;29;20067;-92
2022/06/06 11:10:39;;;;;;;2.75;1.48;;;;;;;23.82;45.24;101236.91;4911995;29;20071;-89
2022/06/06 11:13:13;;;;;;;2.63;1.60;;;;;;;22.22;48.58;101231.69;4924184;29;20059;-89
2022/06/06 11:15:48;;;;;;;2.33;1.60;;;;;;;22.82;49.94;101232.28;4907344;29;20414;-90
2022/06/06 11:18:56;;;;;;;2.05;1.65;;;;;;;25.23;43.63;101227.75;4907091;29;20043;-90
2022/06/06 11:21:38;;;;;;;3.15;1.70;;;;;;;25.98;41.36;101229.69;4924486;28;20070;-89
2022/06/06 11:24:20;;;;;;;1.70;1.45;;;;;;;25.94;41.03;101220.97;4988385;28;20034;-91
2022/06/06 11:27:05;;;;;;;2.70;1.45;;;;;;;25.78;38.16;101227.25;4991946;28;20158;-90
2022/06/06 11:29:55;;;;;;;2.60;1.15;;;;;;;26.55;36.88;101218.78;4989573;28;20046;-92
2022/06/06 11:32:39;;;;;;;4.43;1.45;;;;;;;26.11;36.58;101221.84;4990303;28;20041;-90
2022/06/06 11:35:37;;;;;;;2.75;1.33;;;;;;;24.56;38.45;101224.81;4970232;28;20038;-90
2022/06/06 11:38:11;;;;;;;3.22;1.50;;;;;;;22.78;41.96;101203.72;4981651;28;20031;-88
2022/06/06 11:40:45;;;;;;;4.32;1.77;;;;;;;22.19;43.91;101191.28;4990369;28;20500;-91
2022/06/06 11:43:41;;;;;;;2.30;1.50;;;;;;;22.48;44.31;101201.22;4989798;28;20038;-90
2022/06/06 11:46:20;;;;;;;2.50;1.30;;;;;;;24.69;42.33;101201.75;4988683;28;20066;-90
2022/06/06 11:49:16;;;;;;;2.35;1.48;;;;;;;27.07;36.39;101230.06;4984098;28;20025;-90
2022/06/06 11:51:56;;;;;;;1.33;1.08;;;;;;;27.27;33.00;101203.19;4988299;28;20040;-89
2022/06/06 11:54:42;;;;;;;3.47;1.33;;;;;;;26.47;33.94;101188.78;4973071;28;20041;-87
2022/06/06 11:57:16;;;;;;;1.80;1.30;;;;;;;25.42;37.52;101206.72;4987628;28;20045;-90
2022/06/06 12:00:04;;;;;;;2.30;1.40;;;;;;;24.96;37.58;101192.56;4988548;28;20046;-91
2022/06/06 12:02:58;;;;;;;1.60;1.20;;;;;;;24.49;37.67;101204.69;4973433;28;20026;-90
2022/06/06 12:05:51;;;;;;;2.13;1.27;;;;;;;23.90;38.58;101195.38;4990858;28;20030;-90
2022/06/06 12:08:35;;;;;;;2.25;1.25;;;;;;;23.47;40.37;101196.09;4994232;28;20042;-91
2022/06/06 12:11:35;;;;;;;3.97;1.38;;;;;;;23.22;41.12;101190.38;4994141;28;20021;-90
2022/06/06 12:14:16;;;;;;;3.03;1.73;;;;;;;22.45;41.14;101201.50;4974629;28;20054;-89
2022/06/06 12:16:58;;;;;;;2.60;1.20;;;;;;;21.49;41.93;101208.66;4991365;28;20049;-89
2022/06/06 12:19:42;;;;;;;4.30;1.35;;;;;;;20.86;41.99;101193.50;4989947;28;20022;-90
2022/06/06 12:22:42;;;;;;;4.05;1.10;;;;;;;21.18;42.21;101200.56;4983586;28;20312;-90
2022/06/06 12:25:26;;;;;;;2.70;1.10;;;;;;;22.00;42.06;101207.56;4950041;28;20108;-90
2022/06/06 12:28:10;;;;;;;2.17;1.10;;;;;;;25.15;37.38;101183.28;4989827;28;20034;-92
2022/06/06 12:30:50;;;;;;;2.38;0.90;;;;;;;27.09;33.85;101188.91;4991161;28;20030;-91